sensor_id;sensor_type;location;lat;lon;timestamp;P1;durP1;ratioP1;P2;durP2;ratioP2
58015;SDS011;43809;52.110;20.964;2023-05-18T00:00:56;4.60;;;2.07;;
58015;SDS011;43809;52.110;20.964;2023-05-18T00:02:59;7.65;;;2.50;;
58015;SDS011;43809;52.110;20.964;2023-05-18T00:05:00;7.25;;;2.33;;
58015;SDS011;43809;52.110;20.964;2023-05-18T00:07:01;5.10;;;1.90;;
58015;SDS011;43809;52.110;20.964;2023-05-18T00:09:05;7.13;;;2.38;;
58015;SDS011;43809;52.110;20.964;2023-05-18T00:11:05;7.82;;;2.50;;
58015;SDS011;43809;52.110;20.964;2023-05-18T00:13:06;5.95;;;2.35;;
58015;SDS011;43809;52.110;20.964;2023-05-18T00:15:14;11.75;;;2.25;;
58015;SDS011;43809;52.110;20.964;2023-05-18T00:17:14;6.03;;;1.98;;
58015;SDS011;43809;52.110;20.964;2023-05-18T00:19:15;5.50;;;2.27;;
58015;SDS011;43809;52.110;20.964;2023-05-18T00:21:15;4.63;;;2.35;;
58015;SDS011;43809;52.110;20.964;2023-05-18T00:23:15;8.20;;;2.23;;
58015;SDS011;43809;52.110;20.964;2023-05-18T00:25:15;4.90;;;1.95;;
58015;SDS011;43809;52.110;20.964;2023-05-18T00:27:16;6.32;;;2.13;;
58015;SDS011;43809;52.110;20.964;2023-05-18T00:29:16;6.83;;;2.20;;
58015;SDS011;43809;52.110;20.964;2023-05-18T00:31:16;6.67;;;1.53;;
58015;SDS011;43809;52.110;20.964;2023-05-18T00:33:22;6.88;;;2.00;;
58015;SDS011;43809;52.110;20.964;2023-05-18T00:35:22;3.55;;;1.70;;
58015;SDS011;43809;52.110;20.964;2023-05-18T00:37:23;6.13;;;1.95;;
58015;SDS011;43809;52.110;20.964;2023-05-18T00:39:23;6.43;;;1.63;;
58015;SDS011;43809;52.110;20.964;2023-05-18T00:41:23;6.03;;;2.08;;
58015;SDS011;43809;52.110;20.964;2023-05-18T00:43:25;2.78;;;1.58;;
58015;SDS011;43809;52.110;20.964;2023-05-18T00:45:25;7.05;;;1.33;;
58015;SDS011;43809;52.110;20.964;2023-05-18T00:47:25;3.50;;;1.58;;
58015;SDS011;43809;52.110;20.964;2023-05-18T00:49:26;3.53;;;1.83;;
58015;SDS011;43809;52.110;20.964;2023-05-18T00:51:26;3.90;;;1.50;;
58015;SDS011;43809;52.110;20.964;2023-05-18T00:53:41;2.90;;;1.52;;
58015;SDS011;43809;52.110;20.964;2023-05-18T00:55:41;3.53;;;1.85;;
58015;SDS011;43809;52.110;20.964;2023-05-18T00:57:42;4.22;;;1.60;;
58015;SDS011;43809;52.110;20.964;2023-05-18T00:59:43;8.23;;;1.73;;
58015;SDS011;43809;52.110;20.964;2023-05-18T01:01:45;3.95;;;1.80;;
58015;SDS011;43809;52.110;20.964;2023-05-18T01:03:45;4.32;;;1.75;;
58015;SDS011;43809;52.110;20.964;2023-05-18T01:05:46;5.45;;;1.85;;
58015;SDS011;43809;52.110;20.964;2023-05-18T01:07:54;3.50;;;1.75;;
58015;SDS011;43809;52.110;20.964;2023-05-18T01:09:55;5.30;;;1.60;;
58015;SDS011;43809;52.110;20.964;2023-05-18T01:11:58;4.32;;;1.70;;
58015;SDS011;43809;52.110;20.964;2023-05-18T01:14:19;3.65;;;1.90;;
58015;SDS011;43809;52.110;20.964;2023-05-18T01:16:29;2.63;;;1.40;;
58015;SDS011;43809;52.110;20.964;2023-05-18T01:18:33;7.45;;;2.45;;
58015;SDS011;43809;52.110;20.964;2023-05-18T01:20:43;3.88;;;1.70;;
58015;SDS011;43809;52.110;20.964;2023-05-18T01:22:49;5.47;;;1.75;;
58015;SDS011;43809;52.110;20.964;2023-05-18T01:24:57;5.38;;;1.98;;
58015;SDS011;43809;52.110;20.964;2023-05-18T01:26:59;4.45;;;1.92;;
58015;SDS011;43809;52.110;20.964;2023-05-18T01:29:00;9.90;;;2.20;;
58015;SDS011;43809;52.110;20.964;2023-05-18T01:31:01;4.63;;;2.00;;
58015;SDS011;43809;52.110;20.964;2023-05-18T01:33:05;5.13;;;1.77;;
58015;SDS011;43809;52.110;20.964;2023-05-18T01:35:06;5.85;;;1.77;;
58015;SDS011;43809;52.110;20.964;2023-05-18T01:37:06;2.35;;;1.55;;
58015;SDS011;43809;52.110;20.964;2023-05-18T01:39:06;2.87;;;1.50;;
58015;SDS011;43809;52.110;20.964;2023-05-18T01:43:09;4.93;;;1.40;;
58015;SDS011;43809;52.110;20.964;2023-05-18T01:47:17;5.13;;;1.83;;
58015;SDS011;43809;52.110;20.964;2023-05-18T01:51:21;3.60;;;1.30;;
58015;SDS011;43809;52.110;20.964;2023-05-18T01:55:34;3.42;;;1.52;;
58015;SDS011;43809;52.110;20.964;2023-05-18T01:57:35;4.57;;;1.67;;
58015;SDS011;43809;52.110;20.964;2023-05-18T01:59:36;3.47;;;1.20;;
58015;SDS011;43809;52.110;20.964;2023-05-18T02:01:37;4.00;;;1.30;;
58015;SDS011;43809;52.110;20.964;2023-05-18T02:03:37;5.20;;;1.42;;
58015;SDS011;43809;52.110;20.964;2023-05-18T02:05:37;4.20;;;1.50;;
58015;SDS011;43809;52.110;20.964;2023-05-18T02:07:38;3.37;;;1.60;;
58015;SDS011;43809;52.110;20.964;2023-05-18T02:09:38;4.07;;;1.95;;
58015;SDS011;43809;52.110;20.964;2023-05-18T02:11:39;1.52;;;1.17;;
58015;SDS011;43809;52.110;20.964;2023-05-18T02:13:39;3.47;;;1.30;;
58015;SDS011;43809;52.110;20.964;2023-05-18T02:15:39;5.30;;;1.67;;
58015;SDS011;43809;52.110;20.964;2023-05-18T02:17:39;5.45;;;1.55;;
58015;SDS011;43809;52.110;20.964;2023-05-18T02:19:40;2.95;;;1.27;;
58015;SDS011;43809;52.110;20.964;2023-05-18T02:21:42;4.03;;;1.50;;
58015;SDS011;43809;52.110;20.964;2023-05-18T02:23:42;3.72;;;1.27;;
58015;SDS011;43809;52.110;20.964;2023-05-18T02:25:42;3.35;;;1.20;;
58015;SDS011;43809;52.110;20.964;2023-05-18T02:27:57;2.25;;;1.27;;
58015;SDS011;43809;52.110;20.964;2023-05-18T02:29:58;4.75;;;1.50;;
58015;SDS011;43809;52.110;20.964;2023-05-18T02:31:58;6.43;;;1.52;;
58015;SDS011;43809;52.110;20.964;2023-05-18T02:33:58;3.60;;;1.40;;
58015;SDS011;43809;52.110;20.964;2023-05-18T02:35:59;5.00;;;1.58;;
58015;SDS011;43809;52.110;20.964;2023-05-18T02:38:00;3.90;;;1.40;;
58015;SDS011;43809;52.110;20.964;2023-05-18T02:40:01;3.73;;;1.90;;
58015;SDS011;43809;52.110;20.964;2023-05-18T02:42:01;4.03;;;1.90;;
58015;SDS011;43809;52.110;20.964;2023-05-18T02:44:02;3.40;;;1.50;;
58015;SDS011;43809;52.110;20.964;2023-05-18T02:46:03;6.25;;;2.05;;
58015;SDS011;43809;52.110;20.964;2023-05-18T02:48:03;6.15;;;1.75;;
58015;SDS011;43809;52.110;20.964;2023-05-18T02:50:03;3.42;;;1.73;;
58015;SDS011;43809;52.110;20.964;2023-05-18T02:52:04;3.45;;;1.27;;
58015;SDS011;43809;52.110;20.964;2023-05-18T02:54:04;4.30;;;1.50;;
58015;SDS011;43809;52.110;20.964;2023-05-18T02:56:04;2.90;;;1.55;;
58015;SDS011;43809;52.110;20.964;2023-05-18T02:58:05;3.00;;;1.40;;
58015;SDS011;43809;52.110;20.964;2023-05-18T03:00:06;3.03;;;1.60;;
58015;SDS011;43809;52.110;20.964;2023-05-18T03:02:10;3.85;;;1.33;;
58015;SDS011;43809;52.110;20.964;2023-05-18T03:04:13;4.40;;;1.80;;
58015;SDS011;43809;52.110;20.964;2023-05-18T03:06:13;5.67;;;1.90;;
58015;SDS011;43809;52.110;20.964;2023-05-18T03:08:14;5.13;;;1.92;;
58015;SDS011;43809;52.110;20.964;2023-05-18T03:10:16;4.10;;;1.97;;
58015;SDS011;43809;52.110;20.964;2023-05-18T03:12:16;4.72;;;2.35;;
58015;SDS011;43809;52.110;20.964;2023-05-18T03:14:16;5.32;;;2.17;;
58015;SDS011;43809;52.110;20.964;2023-05-18T03:16:18;6.07;;;2.13;;
58015;SDS011;43809;52.110;20.964;2023-05-18T03:18:18;5.20;;;2.10;;
58015;SDS011;43809;52.110;20.964;2023-05-18T03:20:18;8.13;;;2.20;;
58015;SDS011;43809;52.110;20.964;2023-05-18T03:22:18;4.78;;;2.10;;
58015;SDS011;43809;52.110;20.964;2023-05-18T03:24:19;4.32;;;1.52;;
58015;SDS011;43809;52.110;20.964;2023-05-18T03:26:19;4.20;;;2.10;;
58015;SDS011;43809;52.110;20.964;2023-05-18T03:28:19;4.38;;;2.10;;
58015;SDS011;43809;52.110;20.964;2023-05-18T03:30:19;5.32;;;2.40;;
58015;SDS011;43809;52.110;20.964;2023-05-18T03:32:20;8.00;;;2.28;;
58015;SDS011;43809;52.110;20.964;2023-05-18T03:34:20;5.80;;;1.93;;
58015;SDS011;43809;52.110;20.964;2023-05-18T03:36:20;5.13;;;2.30;;
58015;SDS011;43809;52.110;20.964;2023-05-18T03:38:21;5.72;;;2.22;;
58015;SDS011;43809;52.110;20.964;2023-05-18T03:40:22;4.30;;;2.10;;
58015;SDS011;43809;52.110;20.964;2023-05-18T03:42:23;5.53;;;2.08;;
58015;SDS011;43809;52.110;20.964;2023-05-18T03:44:24;4.57;;;2.42;;
58015;SDS011;43809;52.110;20.964;2023-05-18T03:46:25;5.43;;;2.10;;
58015;SDS011;43809;52.110;20.964;2023-05-18T03:48:25;4.25;;;1.90;;
58015;SDS011;43809;52.110;20.964;2023-05-18T03:50:26;6.75;;;2.40;;
58015;SDS011;43809;52.110;20.964;2023-05-18T03:52:27;7.32;;;2.55;;
58015;SDS011;43809;52.110;20.964;2023-05-18T03:54:28;3.92;;;2.10;;
58015;SDS011;43809;52.110;20.964;2023-05-18T03:56:29;5.10;;;2.13;;
58015;SDS011;43809;52.110;20.964;2023-05-18T03:58:30;4.75;;;2.42;;
58015;SDS011;43809;52.110;20.964;2023-05-18T04:00:30;6.18;;;2.22;;
58015;SDS011;43809;52.110;20.964;2023-05-18T04:02:31;5.72;;;2.70;;
58015;SDS011;43809;52.110;20.964;2023-05-18T04:04:31;10.03;;;2.67;;
58015;SDS011;43809;52.110;20.964;2023-05-18T04:06:31;4.43;;;2.40;;
58015;SDS011;43809;52.110;20.964;2023-05-18T04:08:34;4.45;;;2.13;;
58015;SDS011;43809;52.110;20.964;2023-05-18T04:10:42;3.92;;;1.92;;
58015;SDS011;43809;52.110;20.964;2023-05-18T04:12:42;6.10;;;2.33;;
58015;SDS011;43809;52.110;20.964;2023-05-18T04:14:42;5.05;;;2.30;;
58015;SDS011;43809;52.110;20.964;2023-05-18T04:16:43;6.22;;;2.28;;
58015;SDS011;43809;52.110;20.964;2023-05-18T04:18:43;6.90;;;2.70;;
58015;SDS011;43809;52.110;20.964;2023-05-18T04:20:43;7.05;;;2.30;;
58015;SDS011;43809;52.110;20.964;2023-05-18T04:22:46;6.80;;;2.53;;
58015;SDS011;43809;52.110;20.964;2023-05-18T04:24:47;5.40;;;2.22;;
58015;SDS011;43809;52.110;20.964;2023-05-18T04:26:47;9.40;;;2.60;;
58015;SDS011;43809;52.110;20.964;2023-05-18T04:28:47;5.63;;;2.15;;
58015;SDS011;43809;52.110;20.964;2023-05-18T04:30:48;6.55;;;2.55;;
58015;SDS011;43809;52.110;20.964;2023-05-18T04:32:50;9.20;;;2.60;;
58015;SDS011;43809;52.110;20.964;2023-05-18T04:34:50;9.18;;;2.60;;
58015;SDS011;43809;52.110;20.964;2023-05-18T04:36:51;5.90;;;2.15;;
58015;SDS011;43809;52.110;20.964;2023-05-18T04:38:55;9.70;;;2.40;;
58015;SDS011;43809;52.110;20.964;2023-05-18T04:40:57;4.63;;;2.22;;
58015;SDS011;43809;52.110;20.964;2023-05-18T04:43:00;7.65;;;2.25;;
58015;SDS011;43809;52.110;20.964;2023-05-18T04:45:00;4.75;;;2.08;;
58015;SDS011;43809;52.110;20.964;2023-05-18T04:47:04;5.40;;;2.28;;
58015;SDS011;43809;52.110;20.964;2023-05-18T04:49:07;6.28;;;2.50;;
58015;SDS011;43809;52.110;20.964;2023-05-18T04:51:08;4.78;;;2.22;;
58015;SDS011;43809;52.110;20.964;2023-05-18T04:53:08;6.20;;;2.27;;
58015;SDS011;43809;52.110;20.964;2023-05-18T04:55:11;10.90;;;2.72;;
58015;SDS011;43809;52.110;20.964;2023-05-18T04:57:11;4.55;;;2.38;;
58015;SDS011;43809;52.110;20.964;2023-05-18T04:59:12;5.53;;;2.30;;
58015;SDS011;43809;52.110;20.964;2023-05-18T05:01:12;5.60;;;2.08;;
58015;SDS011;43809;52.110;20.964;2023-05-18T05:03:14;9.02;;;2.80;;
58015;SDS011;43809;52.110;20.964;2023-05-18T05:05:14;5.80;;;2.23;;
58015;SDS011;43809;52.110;20.964;2023-05-18T05:07:14;5.13;;;1.98;;
58015;SDS011;43809;52.110;20.964;2023-05-18T05:09:14;5.30;;;2.50;;
58015;SDS011;43809;52.110;20.964;2023-05-18T05:11:15;8.93;;;2.55;;
58015;SDS011;43809;52.110;20.964;2023-05-18T05:13:15;3.00;;;1.90;;
58015;SDS011;43809;52.110;20.964;2023-05-18T05:15:16;5.50;;;2.27;;
58015;SDS011;43809;52.110;20.964;2023-05-18T05:17:16;7.55;;;2.10;;
58015;SDS011;43809;52.110;20.964;2023-05-18T05:19:16;12.07;;;2.30;;
58015;SDS011;43809;52.110;20.964;2023-05-18T05:21:16;6.53;;;2.10;;
58015;SDS011;43809;52.110;20.964;2023-05-18T05:23:17;5.53;;;2.10;;
58015;SDS011;43809;52.110;20.964;2023-05-18T05:25:17;7.53;;;2.40;;
58015;SDS011;43809;52.110;20.964;2023-05-18T05:27:17;5.40;;;2.20;;
58015;SDS011;43809;52.110;20.964;2023-05-18T05:29:17;7.43;;;1.80;;
58015;SDS011;43809;52.110;20.964;2023-05-18T05:31:18;6.30;;;2.05;;
58015;SDS011;43809;52.110;20.964;2023-05-18T05:33:20;4.45;;;1.75;;
58015;SDS011;43809;52.110;20.964;2023-05-18T05:35:20;3.63;;;1.63;;
58015;SDS011;43809;52.110;20.964;2023-05-18T05:37:20;4.00;;;1.73;;
58015;SDS011;43809;52.110;20.964;2023-05-18T05:39:20;5.13;;;2.00;;
58015;SDS011;43809;52.110;20.964;2023-05-18T05:41:21;5.53;;;1.83;;
58015;SDS011;43809;52.110;20.964;2023-05-18T05:43:22;5.35;;;1.92;;
58015;SDS011;43809;52.110;20.964;2023-05-18T05:45:22;4.70;;;1.70;;
58015;SDS011;43809;52.110;20.964;2023-05-18T05:47:22;3.22;;;1.58;;
58015;SDS011;43809;52.110;20.964;2023-05-18T05:49:22;5.13;;;2.27;;
58015;SDS011;43809;52.110;20.964;2023-05-18T05:51:23;3.70;;;1.83;;
58015;SDS011;43809;52.110;20.964;2023-05-18T05:53:23;3.83;;;1.58;;
58015;SDS011;43809;52.110;20.964;2023-05-18T05:55:23;4.50;;;2.07;;
58015;SDS011;43809;52.110;20.964;2023-05-18T05:57:23;4.13;;;1.63;;
58015;SDS011;43809;52.110;20.964;2023-05-18T05:59:23;4.00;;;1.70;;
58015;SDS011;43809;52.110;20.964;2023-05-18T06:01:24;4.45;;;1.48;;
58015;SDS011;43809;52.110;20.964;2023-05-18T06:03:24;6.05;;;2.03;;
58015;SDS011;43809;52.110;20.964;2023-05-18T06:05:25;6.75;;;1.88;;
58015;SDS011;43809;52.110;20.964;2023-05-18T06:07:33;4.50;;;1.47;;
58015;SDS011;43809;52.110;20.964;2023-05-18T06:09:33;6.28;;;1.77;;
58015;SDS011;43809;52.110;20.964;2023-05-18T06:11:34;5.07;;;1.58;;
58015;SDS011;43809;52.110;20.964;2023-05-18T06:13:34;5.03;;;1.63;;
58015;SDS011;43809;52.110;20.964;2023-05-18T06:15:34;4.15;;;1.60;;
58015;SDS011;43809;52.110;20.964;2023-05-18T06:17:35;4.20;;;1.48;;
58015;SDS011;43809;52.110;20.964;2023-05-18T06:19:35;2.63;;;1.20;;
58015;SDS011;43809;52.110;20.964;2023-05-18T06:21:35;2.28;;;1.33;;
58015;SDS011;43809;52.110;20.964;2023-05-18T06:23:35;4.82;;;1.67;;
58015;SDS011;43809;52.110;20.964;2023-05-18T06:25:35;4.10;;;1.63;;
58015;SDS011;43809;52.110;20.964;2023-05-18T06:27:40;6.20;;;1.50;;
58015;SDS011;43809;52.110;20.964;2023-05-18T06:29:41;3.72;;;1.77;;
58015;SDS011;43809;52.110;20.964;2023-05-18T06:31:41;2.10;;;1.38;;
58015;SDS011;43809;52.110;20.964;2023-05-18T06:33:41;2.80;;;1.20;;
58015;SDS011;43809;52.110;20.964;2023-05-18T06:35:42;3.90;;;1.48;;
58015;SDS011;43809;52.110;20.964;2023-05-18T06:37:42;3.38;;;1.38;;
58015;SDS011;43809;52.110;20.964;2023-05-18T06:39:42;2.87;;;1.23;;
58015;SDS011;43809;52.110;20.964;2023-05-18T06:41:42;3.27;;;1.20;;
58015;SDS011;43809;52.110;20.964;2023-05-18T06:43:44;3.72;;;1.30;;
58015;SDS011;43809;52.110;20.964;2023-05-18T06:45:44;1.98;;;1.10;;
58015;SDS011;43809;52.110;20.964;2023-05-18T06:47:45;2.20;;;1.05;;
58015;SDS011;43809;52.110;20.964;2023-05-18T06:49:45;1.77;;;1.05;;
58015;SDS011;43809;52.110;20.964;2023-05-18T06:51:45;2.45;;;1.08;;
58015;SDS011;43809;52.110;20.964;2023-05-18T06:53:45;3.63;;;1.10;;
58015;SDS011;43809;52.110;20.964;2023-05-18T06:55:46;2.47;;;1.05;;
58015;SDS011;43809;52.110;20.964;2023-05-18T06:57:49;2.07;;;1.00;;
58015;SDS011;43809;52.110;20.964;2023-05-18T06:59:50;2.90;;;1.10;;
58015;SDS011;43809;52.110;20.964;2023-05-18T07:01:52;2.20;;;1.20;;
58015;SDS011;43809;52.110;20.964;2023-05-18T07:03:52;3.17;;;1.45;;
58015;SDS011;43809;52.110;20.964;2023-05-18T07:05:53;1.90;;;1.15;;
58015;SDS011;43809;52.110;20.964;2023-05-18T07:07:53;2.72;;;1.10;;
58015;SDS011;43809;52.110;20.964;2023-05-18T07:12:10;3.45;;;1.00;;
58015;SDS011;43809;52.110;20.964;2023-05-18T07:14:13;2.70;;;0.90;;
58015;SDS011;43809;52.110;20.964;2023-05-18T07:16:13;3.05;;;1.25;;
58015;SDS011;43809;52.110;20.964;2023-05-18T07:18:13;1.77;;;1.03;;
58015;SDS011;43809;52.110;20.964;2023-05-18T07:20:14;2.88;;;0.80;;
58015;SDS011;43809;52.110;20.964;2023-05-18T07:22:14;2.33;;;0.80;;
58015;SDS011;43809;52.110;20.964;2023-05-18T07:24:14;3.93;;;1.10;;
58015;SDS011;43809;52.110;20.964;2023-05-18T07:26:14;1.23;;;0.73;;
58015;SDS011;43809;52.110;20.964;2023-05-18T07:28:15;2.97;;;1.20;;
58015;SDS011;43809;52.110;20.964;2023-05-18T07:30:23;2.53;;;0.98;;
58015;SDS011;43809;52.110;20.964;2023-05-18T07:32:25;1.50;;;0.88;;
58015;SDS011;43809;52.110;20.964;2023-05-18T07:34:25;2.13;;;0.70;;
58015;SDS011;43809;52.110;20.964;2023-05-18T07:36:26;2.17;;;1.00;;
58015;SDS011;43809;52.110;20.964;2023-05-18T07:38:27;3.05;;;0.77;;
58015;SDS011;43809;52.110;20.964;2023-05-18T07:40:27;4.00;;;1.13;;
58015;SDS011;43809;52.110;20.964;2023-05-18T07:42:28;3.47;;;1.00;;
58015;SDS011;43809;52.110;20.964;2023-05-18T07:44:28;2.95;;;1.20;;
58015;SDS011;43809;52.110;20.964;2023-05-18T07:46:28;2.00;;;1.00;;
58015;SDS011;43809;52.110;20.964;2023-05-18T07:48:28;1.40;;;0.90;;
58015;SDS011;43809;52.110;20.964;2023-05-18T07:50:30;1.03;;;0.80;;
58015;SDS011;43809;52.110;20.964;2023-05-18T07:52:31;1.63;;;0.80;;
58015;SDS011;43809;52.110;20.964;2023-05-18T07:54:31;1.55;;;0.80;;
58015;SDS011;43809;52.110;20.964;2023-05-18T07:56:33;2.47;;;0.73;;
58015;SDS011;43809;52.110;20.964;2023-05-18T07:58:37;1.70;;;1.00;;
58015;SDS011;43809;52.110;20.964;2023-05-18T08:00:37;1.52;;;0.90;;
58015;SDS011;43809;52.110;20.964;2023-05-18T08:02:37;3.63;;;0.80;;
58015;SDS011;43809;52.110;20.964;2023-05-18T08:04:37;1.17;;;0.70;;
58015;SDS011;43809;52.110;20.964;2023-05-18T08:06:37;2.13;;;1.00;;
58015;SDS011;43809;52.110;20.964;2023-05-18T08:08:38;2.25;;;0.80;;
58015;SDS011;43809;52.110;20.964;2023-05-18T08:10:38;1.50;;;0.80;;
58015;SDS011;43809;52.110;20.964;2023-05-18T08:12:39;1.38;;;0.90;;
58015;SDS011;43809;52.110;20.964;2023-05-18T08:14:40;1.20;;;0.80;;
58015;SDS011;43809;52.110;20.964;2023-05-18T08:16:40;1.53;;;1.00;;
58015;SDS011;43809;52.110;20.964;2023-05-18T08:18:40;1.33;;;0.88;;
58015;SDS011;43809;52.110;20.964;2023-05-18T08:20:40;1.25;;;0.80;;
58015;SDS011;43809;52.110;20.964;2023-05-18T08:22:43;0.90;;;0.70;;
58015;SDS011;43809;52.110;20.964;2023-05-18T08:24:43;2.45;;;0.90;;
58015;SDS011;43809;52.110;20.964;2023-05-18T08:26:43;3.00;;;1.10;;
58015;SDS011;43809;52.110;20.964;2023-05-18T08:28:50;1.90;;;0.97;;
58015;SDS011;43809;52.110;20.964;2023-05-18T08:30:53;1.83;;;0.73;;
58015;SDS011;43809;52.110;20.964;2023-05-18T08:32:53;2.10;;;1.10;;
58015;SDS011;43809;52.110;20.964;2023-05-18T08:34:55;3.15;;;1.13;;
58015;SDS011;43809;52.110;20.964;2023-05-18T08:36:55;3.25;;;1.13;;
58015;SDS011;43809;52.110;20.964;2023-05-18T08:39:13;1.60;;;0.90;;
58015;SDS011;43809;52.110;20.964;2023-05-18T08:43:53;1.77;;;0.73;;
58015;SDS011;43809;52.110;20.964;2023-05-18T08:48:05;2.90;;;1.15;;
58015;SDS011;43809;52.110;20.964;2023-05-18T08:50:06;2.05;;;0.98;;
58015;SDS011;43809;52.110;20.964;2023-05-18T08:52:13;2.03;;;0.80;;
58015;SDS011;43809;52.110;20.964;2023-05-18T08:54:18;1.77;;;0.82;;
58015;SDS011;43809;52.110;20.964;2023-05-18T08:56:22;1.13;;;0.70;;
58015;SDS011;43809;52.110;20.964;2023-05-18T09:00:59;2.08;;;0.90;;
58015;SDS011;43809;52.110;20.964;2023-05-18T09:02:59;2.60;;;0.88;;
58015;SDS011;43809;52.110;20.964;2023-05-18T09:04:59;2.00;;;1.10;;
58015;SDS011;43809;52.110;20.964;2023-05-18T09:07:03;2.15;;;0.93;;
58015;SDS011;43809;52.110;20.964;2023-05-18T09:09:03;1.85;;;0.80;;
58015;SDS011;43809;52.110;20.964;2023-05-18T09:11:04;2.83;;;0.80;;
58015;SDS011;43809;52.110;20.964;2023-05-18T09:13:05;1.30;;;0.90;;
58015;SDS011;43809;52.110;20.964;2023-05-18T09:15:07;2.25;;;1.00;;
58015;SDS011;43809;52.110;20.964;2023-05-18T09:17:09;2.22;;;0.80;;
58015;SDS011;43809;52.110;20.964;2023-05-18T09:19:09;1.67;;;0.88;;
58015;SDS011;43809;52.110;20.964;2023-05-18T09:21:10;1.95;;;0.90;;
58015;SDS011;43809;52.110;20.964;2023-05-18T09:23:11;4.32;;;1.00;;
58015;SDS011;43809;52.110;20.964;2023-05-18T09:25:11;0.98;;;0.70;;
58015;SDS011;43809;52.110;20.964;2023-05-18T09:27:11;1.20;;;0.73;;
58015;SDS011;43809;52.110;20.964;2023-05-18T09:29:15;2.07;;;0.80;;
58015;SDS011;43809;52.110;20.964;2023-05-18T09:31:19;2.17;;;0.80;;
58015;SDS011;43809;52.110;20.964;2023-05-18T09:33:20;3.40;;;1.00;;
58015;SDS011;43809;52.110;20.964;2023-05-18T09:35:20;1.85;;;0.82;;
58015;SDS011;43809;52.110;20.964;2023-05-18T09:37:23;2.75;;;0.88;;
58015;SDS011;43809;52.110;20.964;2023-05-18T09:39:23;1.25;;;0.70;;
58015;SDS011;43809;52.110;20.964;2023-05-18T09:41:24;1.30;;;0.83;;
58015;SDS011;43809;52.110;20.964;2023-05-18T09:43:24;1.38;;;0.80;;
58015;SDS011;43809;52.110;20.964;2023-05-18T09:45:25;1.30;;;0.80;;
58015;SDS011;43809;52.110;20.964;2023-05-18T09:47:27;1.58;;;0.70;;
58015;SDS011;43809;52.110;20.964;2023-05-18T09:49:28;1.58;;;0.80;;
58015;SDS011;43809;52.110;20.964;2023-05-18T09:51:28;1.20;;;0.82;;
58015;SDS011;43809;52.110;20.964;2023-05-18T09:53:34;2.25;;;0.80;;
58015;SDS011;43809;52.110;20.964;2023-05-18T09:55:37;1.75;;;0.93;;
58015;SDS011;43809;52.110;20.964;2023-05-18T09:57:45;1.73;;;0.80;;
58015;SDS011;43809;52.110;20.964;2023-05-18T09:59:49;1.70;;;0.90;;
58015;SDS011;43809;52.110;20.964;2023-05-18T10:01:54;1.63;;;0.77;;
58015;SDS011;43809;52.110;20.964;2023-05-18T10:04:01;2.00;;;0.70;;
58015;SDS011;43809;52.110;20.964;2023-05-18T10:06:04;1.40;;;0.80;;
58015;SDS011;43809;52.110;20.964;2023-05-18T10:08:05;2.53;;;0.75;;
58015;SDS011;43809;52.110;20.964;2023-05-18T10:10:05;1.67;;;0.97;;
58015;SDS011;43809;52.110;20.964;2023-05-18T10:12:16;1.25;;;0.80;;
58015;SDS011;43809;52.110;20.964;2023-05-18T10:14:24;1.50;;;0.90;;
58015;SDS011;43809;52.110;20.964;2023-05-18T10:16:26;2.55;;;1.00;;
58015;SDS011;43809;52.110;20.964;2023-05-18T10:18:28;1.05;;;0.70;;
58015;SDS011;43809;52.110;20.964;2023-05-18T10:20:28;1.45;;;0.80;;
58015;SDS011;43809;52.110;20.964;2023-05-18T10:22:29;1.60;;;1.02;;
58015;SDS011;43809;52.110;20.964;2023-05-18T10:24:30;0.85;;;0.80;;
58015;SDS011;43809;52.110;20.964;2023-05-18T10:26:33;1.52;;;0.90;;
58015;SDS011;43809;52.110;20.964;2023-05-18T10:28:44;0.95;;;0.80;;
58015;SDS011;43809;52.110;20.964;2023-05-18T10:30:46;2.15;;;1.02;;
58015;SDS011;43809;52.110;20.964;2023-05-18T10:32:46;1.55;;;1.02;;
58015;SDS011;43809;52.110;20.964;2023-05-18T10:34:47;2.35;;;0.80;;
58015;SDS011;43809;52.110;20.964;2023-05-18T10:36:47;1.63;;;0.73;;
58015;SDS011;43809;52.110;20.964;2023-05-18T10:38:48;1.60;;;0.60;;
58015;SDS011;43809;52.110;20.964;2023-05-18T10:40:49;2.15;;;0.70;;
58015;SDS011;43809;52.110;20.964;2023-05-18T10:42:50;1.20;;;0.93;;
58015;SDS011;43809;52.110;20.964;2023-05-18T10:44:51;1.90;;;0.90;;
58015;SDS011;43809;52.110;20.964;2023-05-18T10:46:52;2.08;;;1.05;;
58015;SDS011;43809;52.110;20.964;2023-05-18T10:48:52;2.75;;;1.00;;
58015;SDS011;43809;52.110;20.964;2023-05-18T10:50:55;2.70;;;0.98;;
58015;SDS011;43809;52.110;20.964;2023-05-18T10:52:55;2.33;;;1.00;;
58015;SDS011;43809;52.110;20.964;2023-05-18T10:56:59;1.83;;;1.02;;
58015;SDS011;43809;52.110;20.964;2023-05-18T10:59:01;2.45;;;1.02;;
58015;SDS011;43809;52.110;20.964;2023-05-18T11:01:03;1.80;;;0.90;;
58015;SDS011;43809;52.110;20.964;2023-05-18T11:03:15;1.33;;;0.70;;
58015;SDS011;43809;52.110;20.964;2023-05-18T11:05:20;1.25;;;0.85;;
58015;SDS011;43809;52.110;20.964;2023-05-18T11:07:22;0.95;;;0.70;;
58015;SDS011;43809;52.110;20.964;2023-05-18T11:09:22;2.03;;;0.88;;
58015;SDS011;43809;52.110;20.964;2023-05-18T11:11:23;1.35;;;0.70;;
58015;SDS011;43809;52.110;20.964;2023-05-18T11:13:30;1.88;;;0.80;;
58015;SDS011;43809;52.110;20.964;2023-05-18T11:16:16;3.13;;;1.00;;
58015;SDS011;43809;52.110;20.964;2023-05-18T11:18:11;1.33;;;0.80;;
58015;SDS011;43809;52.110;20.964;2023-05-18T11:20:11;1.08;;;0.75;;
58015;SDS011;43809;52.110;20.964;2023-05-18T11:22:12;2.35;;;0.70;;
58015;SDS011;43809;52.110;20.964;2023-05-18T11:26:18;1.30;;;0.75;;
58015;SDS011;43809;52.110;20.964;2023-05-18T11:28:18;0.73;;;0.63;;
58015;SDS011;43809;52.110;20.964;2023-05-18T11:30:27;1.38;;;0.75;;
58015;SDS011;43809;52.110;20.964;2023-05-18T11:32:28;1.55;;;0.85;;
58015;SDS011;43809;52.110;20.964;2023-05-18T11:38:53;1.75;;;0.80;;
58015;SDS011;43809;52.110;20.964;2023-05-18T11:40:55;2.20;;;0.60;;
58015;SDS011;43809;52.110;20.964;2023-05-18T11:42:57;1.85;;;0.70;;
58015;SDS011;43809;52.110;20.964;2023-05-18T11:49:03;2.38;;;0.80;;
58015;SDS011;43809;52.110;20.964;2023-05-18T11:51:05;1.30;;;0.80;;
58015;SDS011;43809;52.110;20.964;2023-05-18T11:53:09;0.80;;;0.60;;
58015;SDS011;43809;52.110;20.964;2023-05-18T11:55:17;1.00;;;0.63;;
58015;SDS011;43809;52.110;20.964;2023-05-18T11:57:19;2.50;;;1.00;;
58015;SDS011;43809;52.110;20.964;2023-05-18T11:59:32;1.90;;;0.80;;
58015;SDS011;43809;52.110;20.964;2023-05-18T12:01:33;1.85;;;0.60;;
58015;SDS011;43809;52.110;20.964;2023-05-18T12:03:33;1.52;;;0.80;;
58015;SDS011;43809;52.110;20.964;2023-05-18T12:05:35;0.85;;;0.65;;
58015;SDS011;43809;52.110;20.964;2023-05-18T12:07:35;1.55;;;0.75;;
58015;SDS011;43809;52.110;20.964;2023-05-18T12:09:37;0.88;;;0.60;;
58015;SDS011;43809;52.110;20.964;2023-05-18T12:11:38;0.52;;;0.52;;
58015;SDS011;43809;52.110;20.964;2023-05-18T12:13:39;1.23;;;0.70;;
58015;SDS011;43809;52.110;20.964;2023-05-18T12:15:40;0.60;;;0.60;;
58015;SDS011;43809;52.110;20.964;2023-05-18T12:17:41;1.35;;;0.63;;
58015;SDS011;43809;52.110;20.964;2023-05-18T12:19:43;1.93;;;0.90;;
58015;SDS011;43809;52.110;20.964;2023-05-18T12:21:43;0.80;;;0.50;;
58015;SDS011;43809;52.110;20.964;2023-05-18T12:23:43;2.53;;;0.82;;
58015;SDS011;43809;52.110;20.964;2023-05-18T12:25:44;1.35;;;0.57;;
58015;SDS011;43809;52.110;20.964;2023-05-18T12:27:45;1.10;;;0.70;;
58015;SDS011;43809;52.110;20.964;2023-05-18T12:29:49;1.73;;;0.90;;
58015;SDS011;43809;52.110;20.964;2023-05-18T12:31:49;1.70;;;0.50;;